LY88 weather

Ponikve Airport
Užice, Zlatibor, Serbia

Public forecast

Using degrees Celsius for public forecast. Weather courtesy of forecast.io.

Closest aviation weather report (METAR) to Ponikve Airport

Closest report is Morava Airport, 38.8 nm (71.9 km) E. Retrieved 2020/07/03 19:30 UTC (22 minutes ago):

LYKV 031930Z 00000KT 9999 BKN037 22/18 Q1015 NOSIG

Closest aviation forecast (TAF) to Ponikve Airport

Closest forecast is Morava Airport, 38.8 nm (71.9 km) E. Retrieved 2020/07/03 18:00 UTC (2 hours ago):

TAF LYKV 031700Z 0318/0418 32005KT 9999 SCT040 TX26/0414Z TN18/0403Z TEMPO 0402/0406 3000 BR PROB30 TEMPO 0414/0418 VRB15G25KT 5000 TSRA SCT027CB SCT040